Time;durP1;ratioP1;P1;durP2;ratioP2;P2;SDS_P1;SDS_P2;PMS_P1;PMS_P2;Temp;Humidity;BMP_temperature;BMP_pressure;BME280_temperature;BME280_humidity;BME280_pressure;Samples;Min_cycle;Max_cycle;Signal;HPM_P1;HPM_P2
2023/03/03 00:03:31;;;;;;;26.08;14.13;;;;;;;;;;10181727;29;20040;-79
2023/03/03 00:08:33;;;;;;;24.15;13.57;;;;;;;;;;10201660;29;20079;-79
2023/03/03 00:13:46;;;;;;;29.92;15.05;;;;;;;;;;10202679;28;20055;-78
2023/03/03 00:18:47;;;;;;;23.38;13.50;;;;;;;;;;10225012;29;20055;-79
2023/03/03 00:23:47;;;;;;;24.13;13.25;;;;;;;;;;10240210;29;20034;-80
2023/03/03 00:28:53;;;;;;;31.92;15.00;;;;;;;;;;10239025;28;20036;-79
2023/03/03 00:33:54;;;;;;;24.05;13.88;;;;;;;;;;10216554;29;20107;-78
2023/03/03 00:38:56;;;;;;;25.92;14.05;;;;;;;;;;10213911;28;20057;-79
2023/03/03 00:43:57;;;;;;;25.00;13.55;;;;;;;;;;10201696;29;20055;-80
2023/03/03 00:48:58;;;;;;;31.85;13.55;;;;;;;;;;10181448;29;20047;-80
2023/03/03 00:53:58;;;;;;;25.95;13.88;;;;;;;;;;10198392;29;20063;-81
2023/03/03 00:59:00;;;;;;;29.45;14.55;;;;;;;;;;10164157;28;20043;-81
2023/03/03 01:04:03;;;;;;;27.23;14.03;;;;;;;;;;10180199;29;20055;-81
2023/03/03 01:09:04;;;;;;;22.52;13.18;;;;;;;;;;10176686;29;20082;-81
2023/03/03 01:14:08;;;;;;;27.58;14.13;;;;;;;;;;10196614;29;20067;-80
2023/03/03 01:19:10;;;;;;;26.42;13.70;;;;;;;;;;10204192;29;20039;-81
2023/03/03 01:24:12;;;;;;;21.88;12.65;;;;;;;;;;10189793;29;20043;-80
2023/03/03 01:29:12;;;;;;;21.77;12.82;;;;;;;;;;10218242;29;20048;-80
2023/03/03 01:34:13;;;;;;;22.70;13.27;;;;;;;;;;10213758;29;21064;-80
2023/03/03 01:39:13;;;;;;;25.98;12.80;;;;;;;;;;10227014;29;20146;-82
2023/03/03 01:44:14;;;;;;;25.77;12.95;;;;;;;;;;10215385;29;20052;-80
2023/03/03 01:49:18;;;;;;;24.25;12.90;;;;;;;;;;10227727;29;20047;-79
2023/03/03 01:54:23;;;;;;;22.88;13.25;;;;;;;;;;10220383;29;20056;-79
2023/03/03 01:59:25;;;;;;;25.92;14.80;;;;;;;;;;10235327;28;20048;-81
2023/03/03 02:04:26;;;;;;;27.77;14.65;;;;;;;;;;10235411;29;20043;-80
2023/03/03 02:09:45;;;;;;;27.95;14.75;;;;;;;;;;10209616;29;20047;-80
2023/03/03 02:14:48;;;;;;;29.13;15.02;;;;;;;;;;10240612;29;20123;-81
2023/03/03 02:19:50;;;;;;;29.13;15.73;;;;;;;;;;10234097;29;20059;-80
2023/03/03 02:24:52;;;;;;;28.45;14.68;;;;;;;;;;10186602;29;20123;-81
2023/03/03 02:29:54;;;;;;;27.20;14.18;;;;;;;;;;10209211;28;20139;-81
2023/03/03 02:34:54;;;;;;;26.55;14.38;;;;;;;;;;10187300;29;20805;-80
2023/03/03 02:39:57;;;;;;;27.02;14.45;;;;;;;;;;10208623;29;20123;-80
2023/03/03 02:44:57;;;;;;;25.90;14.03;;;;;;;;;;10207943;29;20043;-80
2023/03/03 02:49:57;;;;;;;24.75;13.45;;;;;;;;;;10229283;29;20299;-81
2023/03/03 02:54:58;;;;;;;23.92;13.88;;;;;;;;;;10245132;29;20080;-80
2023/03/03 03:00:00;;;;;;;24.85;13.57;;;;;;;;;;10242301;29;20066;-80
2023/03/03 03:05:01;;;;;;;28.52;13.85;;;;;;;;;;10250830;28;20046;-80
2023/03/03 03:10:02;;;;;;;24.38;13.27;;;;;;;;;;10254885;29;20207;-81
2023/03/03 03:15:08;;;;;;;;;;;;;;;;;;10243919;29;20059;-82
2023/03/03 03:20:10;;;;;;;27.13;14.48;;;;;;;;;;10224334;29;19926;-82
2023/03/03 03:25:13;;;;;;;26.38;14.55;;;;;;;;;;10207952;29;20072;-81
2023/03/03 03:30:14;;;;;;;24.17;13.85;;;;;;;;;;10219641;29;20059;-82
2023/03/03 03:35:16;;;;;;;25.08;14.32;;;;;;;;;;10203971;29;20059;-79
2023/03/03 03:40:18;;;;;;;25.58;13.20;;;;;;;;;;10261449;29;20039;-79
2023/03/03 03:45:20;;;;;;;30.02;14.93;;;;;;;;;;10236908;28;20054;-81
2023/03/03 03:50:23;;;;;;;28.67;15.00;;;;;;;;;;10203772;29;20055;-81
2023/03/03 03:55:24;;;;;;;29.95;15.20;;;;;;;;;;10209065;29;20075;-83
2023/03/03 04:00:26;;;;;;;33.67;16.15;;;;;;;;;;10212522;29;20127;-82
2023/03/03 04:05:31;;;;;;;30.67;15.13;;;;;;;;;;10179956;29;20044;-80
2023/03/03 04:10:33;;;;;;;29.95;14.32;;;;;;;;;;10206876;29;20040;-82
2023/03/03 04:15:35;;;;;;;27.80;15.27;;;;;;;;;;10208406;29;20123;-81
2023/03/03 04:20:38;;;;;;;29.48;16.50;;;;;;;;;;10205526;29;20048;-80
2023/03/03 04:25:39;;;;;;;31.30;16.05;;;;;;;;;;10202097;29;20036;-79
2023/03/03 04:30:46;;;;;;;29.40;16.08;;;;;;;;;;10197720;29;20048;-79
2023/03/03 04:35:50;;;;;;;29.20;15.02;;;;;;;;;;10189954;29;20103;-78
2023/03/03 04:40:51;;;;;;;31.73;16.02;;;;;;;;;;10211530;29;20572;-80
2023/03/03 04:45:52;;;;;;;35.25;16.45;;;;;;;;;;10220243;29;20055;-82
2023/03/03 04:50:52;;;;;;;35.30;17.58;;;;;;;;;;10201085;29;20586;-81
2023/03/03 04:55:54;;;;;;;36.28;16.67;;;;;;;;;;10180494;29;20062;-81
2023/03/03 05:00:56;;;;;;;35.03;16.45;;;;;;;;;;10163540;29;20154;-80
2023/03/03 05:05:59;;;;;;;30.75;16.90;;;;;;;;;;10198154;29;20063;-81
2023/03/03 05:11:00;;;;;;;33.25;17.10;;;;;;;;;;10198416;29;20039;-81
2023/03/03 05:16:00;;;;;;;34.15;16.10;;;;;;;;;;10194615;29;20047;-82
2023/03/03 05:21:01;;;;;;;37.17;17.27;;;;;;;;;;10196728;29;20048;-81
2023/03/03 05:26:03;;;;;;;33.67;17.63;;;;;;;;;;10193368;29;20135;-81
2023/03/03 05:31:03;;;;;;;36.78;17.95;;;;;;;;;;10182242;29;20052;-80
2023/03/03 05:36:04;;;;;;;36.15;18.00;;;;;;;;;;10200232;29;20840;-81
2023/03/03 05:41:05;;;;;;;35.30;17.98;;;;;;;;;;10197883;29;20530;-83
2023/03/03 05:46:06;;;;;;;38.53;19.25;;;;;;;;;;10196365;29;20665;-79
2023/03/03 05:51:07;;;;;;;42.60;19.90;;;;;;;;;;10204076;29;20052;-77
2023/03/03 05:56:08;;;;;;;43.25;20.35;;;;;;;;;;10200735;29;20796;-79
2023/03/03 06:01:09;;;;;;;43.50;20.30;;;;;;;;;;10197444;29;20107;-79
2023/03/03 06:06:09;;;;;;;46.25;20.02;;;;;;;;;;10179160;29;20299;-77
2023/03/03 06:11:10;;;;;;;42.13;20.73;;;;;;;;;;10177670;29;20047;-79
2023/03/03 06:16:10;;;;;;;45.20;21.90;;;;;;;;;;10173268;28;20060;-76
2023/03/03 06:21:11;;;;;;;44.08;20.38;;;;;;;;;;10198571;29;20051;-78
2023/03/03 06:26:11;;;;;;;48.05;20.15;;;;;;;;;;10176043;29;20072;-79
2023/03/03 06:31:12;;;;;;;47.80;21.75;;;;;;;;;;10185800;29;20067;-79
2023/03/03 06:36:12;;;;;;;48.90;20.88;;;;;;;;;;10214889;29;20055;-82
2023/03/03 06:41:12;;;;;;;42.53;20.98;;;;;;;;;;10215464;29;20066;-79
2023/03/03 06:46:13;;;;;;;43.47;20.58;;;;;;;;;;10226892;29;20055;-79
2023/03/03 06:51:21;;;;;;;45.47;21.13;;;;;;;;;;10223831;29;20328;-80
2023/03/03 06:56:25;;;;;;;42.88;20.60;;;;;;;;;;10247183;29;20107;-76
2023/03/03 07:01:26;;;;;;;47.67;21.30;;;;;;;;;;10208810;29;20040;-76
2023/03/03 07:06:28;;;;;;;46.10;20.98;;;;;;;;;;10207036;29;20047;-82
2023/03/03 07:11:29;;;;;;;49.53;22.63;;;;;;;;;;10209011;29;20111;-79
2023/03/03 07:16:31;;;;;;;44.22;21.98;;;;;;;;;;10208470;29;20071;-79
2023/03/03 07:21:33;;;;;;;46.90;22.25;;;;;;;;;;10191022;29;20059;-81
2023/03/03 07:26:35;;;;;;;42.55;20.88;;;;;;;;;;10187205;29;20044;-81
2023/03/03 07:31:38;;;;;;;40.03;20.55;;;;;;;;;;10206433;29;20055;-80
2023/03/03 07:36:39;;;;;;;48.72;21.80;;;;;;;;;;10206539;29;20063;-80
2023/03/03 07:41:39;;;;;;;41.83;20.80;;;;;;;;;;10231632;29;20220;-80
2023/03/03 07:46:44;;;;;;;44.60;21.50;;;;;;;;;;10210231;28;20832;-78
2023/03/03 07:51:44;;;;;;;46.22;21.85;;;;;;;;;;10180004;29;20067;-81
2023/03/03 07:56:45;;;;;;;49.90;21.85;;;;;;;;;;10242328;29;20039;-79
2023/03/03 08:01:48;;;;;;;47.63;22.35;;;;;;;;;;10183443;29;20048;-80
2023/03/03 08:06:53;;;;;;;53.47;21.60;;;;;;;;;;10186284;29;20127;-80
2023/03/03 08:12:05;;;;;;;44.47;22.73;;;;;;;;;;10198137;29;20055;-79
2023/03/03 08:17:20;;;;;;;43.72;22.02;;;;;;;;;;10202797;29;20253;-80
2023/03/03 08:22:25;;;;;;;44.17;21.70;;;;;;;;;;10196987;29;20052;-79
2023/03/03 08:27:25;;;;;;;42.92;19.67;;;;;;;;;;10200510;29;20139;-80
2023/03/03 08:32:25;;;;;;;43.03;20.60;;;;;;;;;;10197603;29;20063;-79
2023/03/03 08:37:26;;;;;;;39.08;20.55;;;;;;;;;;10198354;29;20058;-79
2023/03/03 08:42:28;;;;;;;42.45;20.48;;;;;;;;;;10182677;29;20683;-80
2023/03/03 08:47:29;;;;;;;37.13;19.08;;;;;;;;;;10197088;29;20059;-79
2023/03/03 08:52:29;;;;;;;43.20;21.43;;;;;;;;;;10179279;29;20055;-78
2023/03/03 08:57:30;;;;;;;34.00;18.33;;;;;;;;;;10199468;29;20311;-78
2023/03/03 09:02:30;;;;;;;38.42;19.55;;;;;;;;;;10180345;29;20100;-79
2023/03/03 09:07:31;;;;;;;36.13;19.30;;;;;;;;;;10186072;28;20048;-80
2023/03/03 09:12:37;;;;;;;33.72;17.98;;;;;;;;;;10201262;29;20051;-79
2023/03/03 09:17:37;;;;;;;35.95;19.63;;;;;;;;;;10198184;29;20039;-78
2023/03/03 09:22:40;;;;;;;31.02;18.20;;;;;;;;;;10203294;29;20076;-80
2023/03/03 09:27:41;;;;;;;34.70;18.73;;;;;;;;;;10187569;29;20075;-79
2023/03/03 09:32:42;;;;;;;38.63;20.98;;;;;;;;;;10202873;29;20071;-77
2023/03/03 09:37:43;;;;;;;34.83;17.98;;;;;;;;;;10212122;29;20067;-78
2023/03/03 09:42:50;;;;;;;39.42;18.90;;;;;;;;;;10174399;29;20065;-78
2023/03/03 09:48:20;;;;;;;36.90;18.83;;;;;;;;;;10221969;29;20039;-78
2023/03/03 09:53:36;;;;;;;32.40;18.15;;;;;;;;;;10193401;29;20060;-78
2023/03/03 09:58:48;;;;;;;33.00;17.70;;;;;;;;;;10208277;29;20071;-80
2023/03/03 10:03:58;;;;;;;30.67;16.85;;;;;;;;;;10242206;29;20059;-79
2023/03/03 10:09:00;;;;;;;28.85;17.65;;;;;;;;;;10249197;28;20032;-80
2023/03/03 10:14:19;;;;;;;31.08;17.98;;;;;;;;;;10258227;28;20051;-80
2023/03/03 10:19:39;;;;;;;31.27;16.95;;;;;;;;;;10226693;29;20832;-79
2023/03/03 10:24:46;;;;;;;28.02;16.05;;;;;;;;;;10177737;29;20087;-78
2023/03/03 10:29:58;;;;;;;32.55;16.95;;;;;;;;;;10211237;29;20051;-79
2023/03/03 10:34:59;;;;;;;27.38;15.57;;;;;;;;;;10204264;29;20059;-79
2023/03/03 10:40:13;;;;;;;29.98;17.60;;;;;;;;;;10200770;29;20043;-78
2023/03/03 10:45:22;;;;;;;38.78;20.70;;;;;;;;;;10211304;29;20051;-79
2023/03/03 10:50:30;;;;;;;28.33;15.95;;;;;;;;;;10199848;29;20052;-78
2023/03/03 10:55:54;;;;;;;26.63;15.85;;;;;;;;;;10199972;29;20549;-79
2023/03/03 11:00:58;;;;;;;25.90;15.13;;;;;;;;;;10224896;29;20038;-79
2023/03/03 11:06:09;;;;;;;25.83;15.85;;;;;;;;;;10228017;28;20044;-79
2023/03/03 11:11:13;;;;;;;26.55;15.10;;;;;;;;;;10251539;29;20391;-78
2023/03/03 11:16:13;;;;;;;;;;;;;;;;;;10218075;29;20105;-79
2023/03/03 11:21:25;;;;;;;26.13;16.10;;;;;;;;;;10205747;29;19922;-79
2023/03/03 11:26:44;;;;;;;27.08;15.15;;;;;;;;;;10198939;29;20055;-81
2023/03/03 11:31:44;;;;;;;27.15;16.25;;;;;;;;;;10207607;29;20066;-79
2023/03/03 11:36:48;;;;;;;25.63;15.63;;;;;;;;;;10195087;29;20070;-81
2023/03/03 11:41:59;;;;;;;21.15;14.13;;;;;;;;;;10203858;29;20138;-81
2023/03/03 11:47:30;;;;;;;23.33;14.60;;;;;;;;;;10197937;29;20076;-80
2023/03/03 11:52:41;;;;;;;22.45;14.95;;;;;;;;;;10168917;29;20067;-79
2023/03/03 11:58:15;;;;;;;20.90;14.55;;;;;;;;;;10203853;29;20051;-81
2023/03/03 12:03:21;;;;;;;22.97;14.60;;;;;;;;;;10152215;29;20075;-81
2023/03/03 12:08:29;;;;;;;22.52;14.23;;;;;;;;;;10201659;29;20131;-80
2023/03/03 12:13:48;;;;;;;21.05;14.45;;;;;;;;;;10208035;28;20087;-80
2023/03/03 12:19:08;;;;;;;21.23;13.30;;;;;;;;;;10206814;29;20066;-80
2023/03/03 12:24:26;;;;;;;19.75;13.70;;;;;;;;;;10196874;29;20245;-79
2023/03/03 12:29:35;;;;;;;22.15;13.77;;;;;;;;;;10205616;29;20055;-80
2023/03/03 12:34:40;;;;;;;20.42;14.43;;;;;;;;;;10206435;29;20084;-81
2023/03/03 12:39:49;;;;;;;20.08;13.52;;;;;;;;;;10206121;29;20036;-80
2023/03/03 12:45:08;;;;;;;22.45;14.07;;;;;;;;;;10211075;29;20052;-80
2023/03/03 12:50:18;;;;;;;19.75;13.55;;;;;;;;;;10204595;29;20055;-80
2023/03/03 12:55:21;;;;;;;20.17;13.95;;;;;;;;;;10209402;29;20059;-84
2023/03/03 13:00:28;;;;;;;18.65;13.48;;;;;;;;;;10228134;29;20044;-80
2023/03/03 13:05:38;;;;;;;20.13;13.80;;;;;;;;;;10230735;29;20032;-80
2023/03/03 13:10:39;;;;;;;19.05;13.57;;;;;;;;;;10253661;28;20036;-81
2023/03/03 13:15:50;;;;;;;17.70;13.48;;;;;;;;;;10249622;28;20051;-81
2023/03/03 13:20:58;;;;;;;20.25;13.50;;;;;;;;;;10237499;29;20052;-80
2023/03/03 13:26:17;;;;;;;20.23;14.07;;;;;;;;;;10220016;29;20823;-80
2023/03/03 13:31:22;;;;;;;18.73;12.85;;;;;;;;;;10228728;29;20093;-82
2023/03/03 13:36:25;;;;;;;17.13;13.45;;;;;;;;;;10212681;29;20075;-81
2023/03/03 13:41:49;;;;;;;18.77;13.18;;;;;;;;;;10190804;29;20472;-81
2023/03/03 13:46:59;;;;;;;17.90;13.75;;;;;;;;;;10214930;29;20079;-81
2023/03/03 13:52:15;;;;;;;17.90;13.80;;;;;;;;;;10199764;29;20056;-81
2023/03/03 13:57:20;;;;;;;18.88;12.50;;;;;;;;;;10197631;29;20087;-82
2023/03/03 14:02:59;;;;;;;15.88;12.65;;;;;;;;;;10219775;29;20062;-81
2023/03/03 14:08:08;;;;;;;19.48;12.55;;;;;;;;;;10115065;29;20047;-78
2023/03/03 14:13:17;;;;;;;18.23;11.88;;;;;;;;;;10195243;29;20057;-81
2023/03/03 14:18:23;;;;;;;19.52;12.50;;;;;;;;;;10220465;28;20044;-80
2023/03/03 14:23:44;;;;;;;19.00;11.85;;;;;;;;;;10218140;29;20814;-82
2023/03/03 14:28:50;;;;;;;15.00;10.45;;;;;;;;;;10166971;29;20055;-80
2023/03/03 14:33:58;;;;;;;17.52;11.88;;;;;;;;;;10205106;29;20050;-82
2023/03/03 14:38:59;;;;;;;17.23;10.90;;;;;;;;;;10217383;29;20484;-81
2023/03/03 14:44:20;;;;;;;19.52;11.25;;;;;;;;;;10181606;29;20720;-83
2023/03/03 14:49:37;;;;;;;19.02;11.35;;;;;;;;;;10205415;29;20123;-80
2023/03/03 14:54:38;;;;;;;15.68;10.63;;;;;;;;;;10216978;29;20132;-81
2023/03/03 14:59:39;;;;;;;19.55;10.85;;;;;;;;;;10184238;29;20111;-80
2023/03/03 15:04:41;;;;;;;16.17;10.07;;;;;;;;;;10200777;29;20043;-83
2023/03/03 15:09:49;;;;;;;17.50;10.70;;;;;;;;;;10225899;29;20043;-83
2023/03/03 15:15:10;;;;;;;18.80;10.75;;;;;;;;;;10233459;29;20130;-85
2023/03/03 15:20:22;;;;;;;19.13;9.95;;;;;;;;;;10240046;28;20064;-83
2023/03/03 15:25:39;;;;;;;17.17;9.75;;;;;;;;;;10250813;28;20051;-77
2023/03/03 15:30:50;;;;;;;14.43;9.02;;;;;;;;;;10239055;28;20086;-80
2023/03/03 15:36:16;;;;;;;15.55;8.95;;;;;;;;;;10205564;29;20035;-78
2023/03/03 15:41:39;;;;;;;15.27;9.35;;;;;;;;;;10250360;29;20059;-79
2023/03/03 15:47:00;;;;;;;14.32;8.45;;;;;;;;;;10235570;29;20028;-81
2023/03/03 15:52:20;;;;;;;13.70;7.97;;;;;;;;;;10253471;29;20099;-82
2023/03/03 15:57:31;;;;;;;14.90;8.13;;;;;;;;;;10242751;29;20042;-79
2023/03/03 16:02:50;;;;;;;14.60;8.20;;;;;;;;;;10206865;29;20197;-79
2023/03/03 16:08:15;;;;;;;11.43;7.50;;;;;;;;;;10181688;29;20076;-80
2023/03/03 16:13:38;;;;;;;11.00;7.10;;;;;;;;;;10199512;29;20060;-79
2023/03/03 16:19:02;;;;;;;10.05;6.13;;;;;;;;;;10183308;29;20048;-82
2023/03/03 16:24:13;;;;;;;9.10;5.53;;;;;;;;;;10198346;29;20055;-83
2023/03/03 16:29:17;;;;;;;10.20;5.63;;;;;;;;;;10219149;29;20522;-80
2023/03/03 16:34:21;;;;;;;9.60;5.72;;;;;;;;;;10213347;28;20113;-81
2023/03/03 16:39:29;;;;;;;9.77;5.13;;;;;;;;;;10225062;29;20046;-83
2023/03/03 16:45:00;;;;;;;12.23;5.30;;;;;;;;;;10233097;29;20024;-80
2023/03/03 16:50:10;;;;;;;6.75;4.22;;;;;;;;;;10182852;29;20055;-82
2023/03/03 16:55:22;;;;;;;9.63;5.00;;;;;;;;;;10247582;28;20043;-86
2023/03/03 17:00:26;;;;;;;8.45;3.90;;;;;;;;;;10234107;28;20055;-82
2023/03/03 17:05:38;;;;;;;6.93;4.57;;;;;;;;;;10247191;28;20036;-81
2023/03/03 17:10:49;;;;;;;9.65;5.13;;;;;;;;;;10260576;28;20043;-82
2023/03/03 17:15:59;;;;;;;9.20;4.10;;;;;;;;;;10240551;28;20039;-81
2023/03/03 17:21:02;;;;;;;6.43;4.13;;;;;;;;;;10251822;28;20056;-81
2023/03/03 17:26:16;;;;;;;5.18;3.60;;;;;;;;;;10222155;28;20047;-82
2023/03/03 17:31:39;;;;;;;4.82;3.22;;;;;;;;;;10228014;29;20047;-82
2023/03/03 17:36:58;;;;;;;8.57;4.38;;;;;;;;;;10234251;28;20032;-81
2023/03/03 17:42:17;;;;;;;6.93;3.97;;;;;;;;;;10225079;29;20050;-83
2023/03/03 17:47:32;;;;;;;7.38;4.03;;;;;;;;;;10189907;29;20055;-82
2023/03/03 17:52:51;;;;;;;9.32;4.72;;;;;;;;;;10210692;29;21331;-83
2023/03/03 17:57:59;;;;;;;7.13;3.80;;;;;;;;;;10223409;29;20136;-84
2023/03/03 18:03:03;;;;;;;8.30;3.90;;;;;;;;;;10249917;28;20076;-81
2023/03/03 18:08:23;;;;;;;6.90;4.05;;;;;;;;;;10219545;29;20047;-83
2023/03/03 18:13:42;;;;;;;9.20;4.53;;;;;;;;;;10195598;29;20408;-83
2023/03/03 18:18:53;;;;;;;8.60;4.43;;;;;;;;;;10223371;29;20079;-84
2023/03/03 18:24:15;;;;;;;8.82;5.00;;;;;;;;;;10224192;29;20192;-82
2023/03/03 18:29:19;;;;;;;9.20;4.40;;;;;;;;;;10185679;29;20062;-83
2023/03/03 18:34:30;;;;;;;10.38;6.40;;;;;;;;;;10200761;29;20091;-83
2023/03/03 18:40:12;;;;;;;9.63;6.68;;;;;;;;;;10218640;29;20520;-83
2023/03/03 18:45:18;;;;;;;13.88;7.35;;;;;;;;;;10220037;29;20046;-84
2023/03/03 18:50:37;;;;;;;12.07;8.10;;;;;;;;;;10213563;29;20082;-84
2023/03/03 18:55:40;;;;;;;12.48;8.35;;;;;;;;;;10213364;29;20114;-83
2023/03/03 19:00:44;;;;;;;14.70;8.38;;;;;;;;;;10221138;29;20031;-81
2023/03/03 19:05:48;;;;;;;15.00;8.88;;;;;;;;;;10241669;29;20052;-84
2023/03/03 19:11:00;;;;;;;18.00;9.35;;;;;;;;;;10241660;28;20102;-83
2023/03/03 19:16:12;;;;;;;18.10;10.02;;;;;;;;;;10244475;28;20071;-83
2023/03/03 19:21:30;;;;;;;15.63;10.18;;;;;;;;;;10268322;28;20099;-81
2023/03/03 19:26:46;;;;;;;20.02;10.70;;;;;;;;;;10263606;28;20056;-80
2023/03/03 19:32:28;;;;;;;20.23;11.13;;;;;;;;;;10261175;28;20103;-82
2023/03/03 19:38:01;;;;;;;19.67;10.98;;;;;;;;;;10253183;28;20060;-85
2023/03/03 19:43:19;;;;;;;21.40;11.40;;;;;;;;;;10211448;28;20086;-80
2023/03/03 19:48:47;;;;;;;21.23;10.40;;;;;;;;;;10208862;29;20813;-81
2023/03/03 19:54:07;;;;;;;25.77;11.48;;;;;;;;;;10259748;28;20103;-82
2023/03/03 19:59:28;;;;;;;23.05;10.75;;;;;;;;;;10233181;29;20430;-83
2023/03/03 20:04:30;;;;;;;19.40;11.13;;;;;;;;;;10232007;29;20127;-83
2023/03/03 20:09:49;;;;;;;18.67;10.52;;;;;;;;;;10248552;29;20063;-83
2023/03/03 20:14:56;;;;;;;18.95;10.43;;;;;;;;;;10255321;29;20062;-83
2023/03/03 20:20:05;;;;;;;21.08;11.52;;;;;;;;;;10252629;29;20086;-79
2023/03/03 20:25:09;;;;;;;23.80;11.80;;;;;;;;;;10213078;29;20043;-85
2023/03/03 20:30:20;;;;;;;23.25;12.05;;;;;;;;;;10227323;29;20058;-82
2023/03/03 20:35:26;;;;;;;23.13;12.30;;;;;;;;;;10206284;29;20091;-83
2023/03/03 20:40:37;;;;;;;21.95;11.35;;;;;;;;;;10213301;29;20035;-84
2023/03/03 20:45:59;;;;;;;25.38;12.57;;;;;;;;;;10230458;29;20056;-84
2023/03/03 20:51:08;;;;;;;27.33;13.23;;;;;;;;;;10216786;29;20683;-83
2023/03/03 20:56:38;;;;;;;25.15;12.07;;;;;;;;;;10226503;29;20299;-77
2023/03/03 21:01:52;;;;;;;24.40;12.30;;;;;;;;;;10207647;29;20500;-79
2023/03/03 21:06:54;;;;;;;22.83;12.73;;;;;;;;;;10203522;29;20091;-80
2023/03/03 21:12:01;;;;;;;24.40;12.38;;;;;;;;;;10187585;29;20423;-82
2023/03/03 21:17:25;;;;;;;21.80;11.68;;;;;;;;;;10202223;29;20051;-79
2023/03/03 21:22:31;;;;;;;22.55;12.80;;;;;;;;;;10199827;29;20489;-81
2023/03/03 21:27:37;;;;;;;26.15;12.82;;;;;;;;;;10201118;29;20134;-84
2023/03/03 21:32:53;;;;;;;24.13;13.25;;;;;;;;;;10201280;28;20055;-82
2023/03/03 21:37:57;;;;;;;25.45;12.93;;;;;;;;;;10214037;28;20048;-82
2023/03/03 21:43:02;;;;;;;23.75;12.80;;;;;;;;;;10176293;29;20111;-84
2023/03/03 21:48:07;;;;;;;22.75;11.95;;;;;;;;;;10231676;29;20060;-82
2023/03/03 21:53:16;;;;;;;28.17;13.70;;;;;;;;;;10261376;28;20064;-82
2023/03/03 21:58:20;;;;;;;26.90;14.18;;;;;;;;;;10253465;28;20112;-81
2023/03/03 22:03:25;;;;;;;23.88;13.63;;;;;;;;;;10269621;28;20055;-80
2023/03/03 22:09:05;;;;;;;25.92;13.40;;;;;;;;;;10222000;29;20056;-81
2023/03/03 22:20:04;;;;;;;28.23;14.20;;;;;;;;;;10220576;29;20143;-82
2023/03/03 22:25:06;;;;;;;28.35;13.20;;;;;;;;;;10195599;29;20055;-82
2023/03/03 22:30:07;;;;;;;27.30;13.20;;;;;;;;;;10214439;29;20047;-80
2023/03/03 22:35:09;;;;;;;27.35;13.82;;;;;;;;;;10193646;29;20070;-79
2023/03/03 22:40:11;;;;;;;26.35;12.43;;;;;;;;;;10217503;29;20062;-80
2023/03/03 22:45:13;;;;;;;23.38;13.05;;;;;;;;;;10224805;29;20047;-80
2023/03/03 22:50:15;;;;;;;24.08;12.88;;;;;;;;;;10247368;29;20099;-81
2023/03/03 22:55:19;;;;;;;21.98;13.23;;;;;;;;;;10240646;29;20055;-78
2023/03/03 23:00:20;;;;;;;24.35;12.85;;;;;;;;;;10250948;29;20039;-80
2023/03/03 23:05:22;;;;;;;25.02;14.63;;;;;;;;;;10196663;29;20048;-81
2023/03/03 23:10:28;;;;;;;22.52;13.02;;;;;;;;;;10200912;29;20119;-78
2023/03/03 23:15:32;;;;;;;25.85;12.82;;;;;;;;;;10172616;29;20111;-79
2023/03/03 23:20:33;;;;;;;24.63;14.18;;;;;;;;;;10216008;29;20083;-81
2023/03/03 23:25:38;;;;;;;22.65;12.15;;;;;;;;;;10230034;29;20055;-80
2023/03/03 23:30:43;;;;;;;22.40;11.45;;;;;;;;;;10235768;29;20086;-81
2023/03/03 23:35:50;;;;;;;24.35;13.20;;;;;;;;;;10238389;29;20119;-81
2023/03/03 23:40:52;;;;;;;26.58;13.52;;;;;;;;;;10225689;29;20055;-82
2023/03/03 23:45:55;;;;;;;23.60;12.35;;;;;;;;;;10184239;29;20044;-80
2023/03/03 23:51:01;;;;;;;20.08;12.25;;;;;;;;;;10220348;28;20052;-81
2023/03/03 23:56:01;;;;;;;21.65;12.65;;;;;;;;;;10206731;29;20052;-82
